createdAt,value
2023-03-06T00:00:33.295Z,98491.22
2023-03-06T00:03:00.755Z,98499.09
2023-03-06T00:05:28.168Z,98499.09
2023-03-06T00:07:55.394Z,98494.69
2023-03-06T00:10:24.411Z,98495.53
2023-03-06T00:12:52.207Z,98504.16
2023-03-06T00:15:19.451Z,98490.34
2023-03-06T00:17:46.919Z,98489.47
2023-03-06T00:20:14.264Z,98493.78
2023-03-06T00:22:41.495Z,98493.72
2023-03-06T00:25:10.429Z,98486.00
2023-03-06T00:27:37.729Z,98487.81
2023-03-06T00:30:05.537Z,98478.22
2023-03-06T00:32:33.065Z,98486.09
2023-03-06T00:35:01.797Z,98477.44
2023-03-06T00:37:29.010Z,98476.56
2023-03-06T00:39:56.481Z,98480.84
2023-03-06T00:42:23.665Z,98477.34
2023-03-06T00:44:51.593Z,98471.31
2023-03-06T00:47:19.038Z,98479.09
2023-03-06T00:49:46.239Z,98472.16
2023-03-06T00:52:13.466Z,98474.84
2023-03-06T00:54:40.914Z,98475.78
2023-03-06T00:57:08.421Z,98472.25
2023-03-06T00:59:35.808Z,98465.31
2023-03-06T01:02:03.449Z,98468.03
2023-03-06T01:04:31.778Z,98449.75
2023-03-06T01:06:59.084Z,98448.91
2023-03-06T01:09:26.555Z,98448.94
2023-03-06T01:11:54.138Z,98454.13
2023-03-06T01:14:21.468Z,98451.44
2023-03-06T01:16:48.924Z,98453.28
2023-03-06T01:19:17.832Z,98456.69
2023-03-06T01:21:45.583Z,98455.88
2023-03-06T01:24:13.042Z,98447.31
2023-03-06T01:26:40.290Z,98445.53
2023-03-06T01:29:07.489Z,98441.97
2023-03-06T01:31:35.120Z,98441.09
2023-03-06T01:34:02.297Z,98440.25
2023-03-06T01:36:29.457Z,98439.34
2023-03-06T01:38:56.917Z,98436.72
2023-03-06T01:41:24.768Z,98428.94
2023-03-06T01:43:51.919Z,98426.41
2023-03-06T01:46:42.338Z,98435.91
2023-03-06T01:49:21.616Z,98431.53
2023-03-06T01:51:52.055Z,98428.97
2023-03-06T01:54:29.476Z,98428.03
2023-03-06T01:56:59.301Z,98425.53
2023-03-06T01:59:27.013Z,98420.34
2023-03-06T02:01:54.796Z,98428.97
2023-03-06T02:04:22.289Z,98424.56
2023-03-06T02:06:50.868Z,98431.56
2023-03-06T02:09:18.041Z,98429.94
2023-03-06T02:11:46.403Z,98421.28
2023-03-06T02:14:14.849Z,98423.81
2023-03-06T02:16:42.389Z,98430.00
2023-03-06T02:19:14.864Z,98420.31
2023-03-06T02:21:42.296Z,98430.06
2023-03-06T02:24:09.436Z,98421.25
2023-03-06T02:26:36.888Z,98419.50
2023-03-06T02:29:04.692Z,98413.47
2023-03-06T02:31:32.694Z,98414.34
2023-03-06T02:34:03.558Z,98417.88
2023-03-06T02:36:31.271Z,98414.38
2023-03-06T02:38:58.463Z,98417.00
2023-03-06T02:41:25.748Z,98410.88
2023-03-06T02:43:53.597Z,98417.69
2023-03-06T02:46:20.898Z,98416.84
2023-03-06T02:48:48.207Z,98420.34
2023-03-06T02:51:15.683Z,98416.00
2023-03-06T02:53:43.820Z,98422.06
2023-03-06T02:56:10.989Z,98423.69
2023-03-06T02:58:38.547Z,98422.09
2023-03-06T03:01:05.790Z,98422.75
2023-03-06T03:03:34.274Z,98415.97
2023-03-06T03:06:03.561Z,98416.66
2023-03-06T03:08:31.848Z,98413.16
2023-03-06T03:10:59.337Z,98409.66
2023-03-06T03:13:27.873Z,98417.34
2023-03-06T03:16:01.975Z,98411.38
2023-03-06T03:18:29.679Z,98420.94
2023-03-06T03:20:56.896Z,98408.78
2023-03-06T03:23:24.346Z,98406.25
2023-03-06T03:25:51.832Z,98417.38
2023-03-06T03:28:19.798Z,98414.84
2023-03-06T03:30:47.088Z,98407.03
2023-03-06T03:33:14.710Z,98408.75
2023-03-06T03:35:42.680Z,98403.72
2023-03-06T03:38:10.442Z,98409.75
2023-03-06T03:40:38.650Z,98407.94
2023-03-06T03:43:05.889Z,98399.19
2023-03-06T03:45:33.336Z,98405.31
2023-03-06T03:48:00.816Z,98401.78
2023-03-06T03:50:28.471Z,98398.19
2023-03-06T03:52:56.391Z,98393.09
2023-03-06T03:55:24.388Z,98402.69
2023-03-06T03:57:52.034Z,98397.47
2023-03-06T04:00:19.441Z,98401.00
2023-03-06T04:02:47.928Z,98395.78
2023-03-06T04:05:15.954Z,98391.41
2023-03-06T04:07:43.424Z,98391.50
2023-03-06T04:10:11.721Z,98394.09
2023-03-06T04:12:39.018Z,98394.97
2023-03-06T04:15:07.225Z,98400.94
2023-03-06T04:17:35.534Z,98405.06
2023-03-06T04:20:04.471Z,98401.84
2023-03-06T04:22:32.405Z,98401.84
2023-03-06T04:25:00.471Z,98405.31
2023-03-06T04:27:27.783Z,98400.19
2023-03-06T04:29:56.464Z,98392.44
2023-03-06T04:32:24.198Z,98386.19
2023-03-06T04:34:51.732Z,98391.28
2023-03-06T04:37:22.921Z,98390.56
2023-03-06T04:39:50.712Z,98402.06
2023-03-06T04:42:17.915Z,98395.81
2023-03-06T04:44:45.096Z,98391.41
2023-03-06T04:47:12.660Z,98390.53
2023-03-06T04:49:39.845Z,98392.28
2023-03-06T04:52:07.126Z,98390.47
2023-03-06T04:54:34.551Z,98388.88
2023-03-06T04:57:01.740Z,98378.56
2023-03-06T04:59:29.110Z,98385.28
2023-03-06T05:01:56.684Z,98390.66
2023-03-06T05:04:23.888Z,98387.16
2023-03-06T05:06:51.333Z,98388.84
2023-03-06T05:09:18.766Z,98386.16
2023-03-06T05:11:45.991Z,98389.78
2023-03-06T05:14:13.152Z,98393.25
2023-03-06T05:16:40.744Z,98395.78
2023-03-06T05:19:07.926Z,98389.00
2023-03-06T05:21:35.080Z,98383.00
2023-03-06T05:24:02.499Z,98392.28
2023-03-06T05:26:29.690Z,98392.37
2023-03-06T05:28:56.842Z,98381.88
2023-03-06T05:31:24.311Z,98389.00
2023-03-06T05:33:51.460Z,98387.06
2023-03-06T05:36:18.637Z,98386.16
2023-03-06T05:38:46.108Z,98382.72
2023-03-06T05:41:13.923Z,98389.44
2023-03-06T05:43:41.305Z,98387.88
2023-03-06T05:46:09.099Z,98387.16
2023-03-06T05:48:37.508Z,98387.09
2023-03-06T05:51:04.916Z,98386.31
2023-03-06T05:53:32.456Z,98388.78
2023-03-06T05:56:03.966Z,98388.84
2023-03-06T05:58:31.338Z,98392.25
2023-03-06T06:00:58.819Z,98398.38
2023-03-06T06:03:26.364Z,98395.69
2023-03-06T06:05:53.566Z,98387.91
2023-03-06T06:08:20.800Z,98392.19
2023-03-06T06:10:48.328Z,98392.19
2023-03-06T06:13:15.535Z,98390.41
2023-03-06T06:15:42.738Z,98385.22
2023-03-06T06:18:10.262Z,98398.13
2023-03-06T06:20:37.892Z,98402.53
2023-03-06T06:23:05.128Z,98401.66
2023-03-06T06:25:32.955Z,98410.25
2023-03-06T06:28:00.131Z,98409.53
2023-03-06T06:30:27.290Z,98418.84
2023-03-06T06:32:54.725Z,98411.09
2023-03-06T06:35:22.058Z,98409.34
2023-03-06T06:37:49.378Z,98412.72
2023-03-06T06:40:17.098Z,98411.00
2023-03-06T06:42:44.482Z,98409.41
2023-03-06T06:45:11.776Z,98403.13
2023-03-06T06:47:41.516Z,98399.44
2023-03-06T06:50:12.459Z,98392.53
2023-03-06T06:52:39.943Z,98395.19
2023-03-06T06:55:07.402Z,98402.06
2023-03-06T06:57:34.572Z,98402.91
2023-03-06T07:00:02.120Z,98404.50
2023-03-06T07:02:29.395Z,98407.94
2023-03-06T07:05:03.656Z,98405.50
2023-03-06T07:07:36.280Z,98406.66
2023-03-06T07:10:05.549Z,98406.59
2023-03-06T07:12:35.002Z,98410.72
2023-03-06T07:15:02.562Z,98412.44
2023-03-06T07:17:30.028Z,98419.84
2023-03-06T07:19:57.538Z,98420.12
2023-03-06T07:22:24.702Z,98432.72
2023-03-06T07:24:51.862Z,98432.25
2023-03-06T07:27:19.318Z,98433.88
2023-03-06T07:29:46.608Z,98434.38
2023-03-06T07:32:13.800Z,98426.41
2023-03-06T07:34:41.230Z,98428.84
2023-03-06T07:37:08.392Z,98430.44
2023-03-06T07:39:35.636Z,98427.91
2023-03-06T07:42:03.363Z,98425.38
2023-03-06T07:44:31.839Z,98422.13
2023-03-06T07:46:59.061Z,98428.72
2023-03-06T07:49:26.508Z,98428.97
2023-03-06T07:51:53.674Z,98435.00
2023-03-06T07:54:20.845Z,98434.38
2023-03-06T07:56:51.580Z,98433.47
2023-03-06T07:59:18.729Z,98430.69
2023-03-06T08:01:45.905Z,98436.78
2023-03-06T08:04:13.489Z,98442.06
2023-03-06T08:06:40.745Z,98443.84
2023-03-06T08:09:07.925Z,98453.37
2023-03-06T08:11:35.368Z,98456.84
2023-03-06T08:14:02.621Z,98451.66
2023-03-06T08:16:31.471Z,98448.19
2023-03-06T08:18:58.975Z,98440.28
2023-03-06T08:21:27.301Z,98437.66
2023-03-06T08:23:54.502Z,98433.47
2023-03-06T08:26:28.992Z,98442.94
2023-03-06T08:28:57.209Z,98431.72
2023-03-06T08:31:26.118Z,98429.19
2023-03-06T08:33:53.617Z,98436.97
2023-03-06T08:36:20.789Z,98423.00
2023-03-06T08:38:48.244Z,98420.50
2023-03-06T08:41:15.402Z,98430.94
2023-03-06T08:43:42.684Z,98433.50
2023-03-06T08:46:10.421Z,98424.00
2023-03-06T08:48:37.657Z,98425.72
2023-03-06T08:51:04.940Z,98430.06
2023-03-06T08:53:42.627Z,98429.06
2023-03-06T08:56:16.440Z,98434.38
2023-03-06T08:58:43.893Z,98424.84
2023-03-06T09:01:21.593Z,98416.16
2023-03-06T09:03:49.417Z,98421.41
2023-03-06T09:06:17.129Z,98426.47
2023-03-06T09:08:44.736Z,98414.13
2023-03-06T09:11:12.892Z,98410.91
2023-03-06T09:13:40.145Z,98418.63
2023-03-06T09:16:08.466Z,98411.91
2023-03-06T09:18:35.998Z,98413.53
2023-03-06T09:21:04.150Z,98406.72
2023-03-06T09:23:31.699Z,98405.00
2023-03-06T09:25:59.718Z,98410.91
2023-03-06T09:28:26.937Z,98401.50
2023-03-06T09:30:54.352Z,98394.59
2023-03-06T09:33:21.930Z,98387.56
2023-03-06T09:35:51.007Z,98392.03
2023-03-06T09:38:18.846Z,98400.56
2023-03-06T09:41:15.657Z,98398.06
2023-03-06T09:43:46.506Z,98388.53
2023-03-06T09:46:17.442Z,98392.81
2023-03-06T09:48:44.614Z,98391.97
2023-03-06T09:51:12.869Z,98394.47
2023-03-06T09:53:46.351Z,98384.09
2023-03-06T09:56:15.172Z,98389.28
2023-03-06T09:58:45.119Z,98385.13
2023-03-06T10:01:16.372Z,98382.41
2023-03-06T10:03:46.725Z,98377.22
2023-03-06T10:06:22.853Z,98373.03
2023-03-06T10:09:04.203Z,98360.69
2023-03-06T10:11:40.197Z,98363.50
2023-03-06T10:14:22.819Z,98376.97
2023-03-06T10:16:50.030Z,98380.75
2023-03-06T10:19:19.000Z,98380.72
2023-03-06T10:21:48.497Z,98376.81
2023-03-06T10:24:27.598Z,98375.63
2023-03-06T10:26:55.661Z,98373.88
2023-03-06T10:29:43.682Z,98375.63
2023-03-06T10:32:18.720Z,98368.63
2023-03-06T10:34:45.930Z,98370.22
2023-03-06T10:37:18.319Z,98368.41
2023-03-06T10:39:45.539Z,98370.44
2023-03-06T10:42:12.684Z,98356.56
2023-03-06T10:44:40.233Z,98355.72
2023-03-06T10:47:27.139Z,98344.50
2023-03-06T10:49:57.386Z,98349.63
2023-03-06T10:52:24.871Z,98341.06
2023-03-06T10:54:52.648Z,98339.25
2023-03-06T10:57:32.559Z,98324.53
2023-03-06T11:00:00.577Z,98322.06
2023-03-06T11:02:30.222Z,98315.94
2023-03-06T11:04:57.888Z,98309.94
2023-03-06T11:07:28.830Z,98315.97
2023-03-06T11:09:59.163Z,98304.75
2023-03-06T11:12:27.862Z,98299.59
2023-03-06T11:15:07.585Z,98285.75
2023-03-06T11:17:36.135Z,98292.63
2023-03-06T11:20:23.657Z,98277.94
2023-03-06T11:22:54.815Z,98284.84
2023-03-06T11:25:23.147Z,98277.13
2023-03-06T11:27:52.953Z,98270.22
2023-03-06T11:30:21.027Z,98271.09
2023-03-06T11:32:53.991Z,98255.53
2023-03-06T11:35:22.603Z,98245.16
2023-03-06T11:37:51.364Z,98235.66
2023-03-06T11:40:24.354Z,98217.56
2023-03-06T11:42:51.754Z,98215.84
2023-03-06T11:45:26.836Z,98206.25
2023-03-06T11:47:58.812Z,98205.47
2023-03-06T11:50:29.007Z,98200.06
2023-03-06T11:53:05.895Z,98201.19
2023-03-06T11:55:36.181Z,98203.75
2023-03-06T11:58:03.739Z,98189.03
2023-03-06T12:00:49.613Z,98188.19
2023-03-06T12:03:32.850Z,98189.09
2023-03-06T12:06:10.848Z,98177.81
2023-03-06T12:08:52.230Z,98181.97
2023-03-06T12:11:19.429Z,98172.19
2023-03-06T12:14:06.060Z,98166.47
2023-03-06T12:16:51.892Z,98164.34
2023-03-06T12:19:25.227Z,98168.44
2023-03-06T12:22:03.048Z,98164.22
2023-03-06T12:24:42.422Z,98161.63
2023-03-06T12:27:18.413Z,98153.69
2023-03-06T12:30:04.247Z,98147.34
2023-03-06T12:32:50.925Z,98153.84
2023-03-06T12:35:18.421Z,98152.44
2023-03-06T12:37:54.850Z,98146.78
2023-03-06T12:40:33.220Z,98149.78
2023-03-06T12:43:00.406Z,98153.34
2023-03-06T12:45:34.466Z,98143.81
2023-03-06T12:48:02.108Z,98145.22
2023-03-06T12:50:30.705Z,98145.62
2023-03-06T12:52:58.787Z,98129.41
2023-03-06T12:55:26.206Z,98121.91
2023-03-06T12:57:53.986Z,98129.69
2023-03-06T13:00:30.145Z,98121.59
2023-03-06T13:03:11.545Z,98125.47
2023-03-06T13:05:38.670Z,98127.03
2023-03-06T13:08:24.629Z,98132.53
2023-03-06T13:11:24.287Z,98124.47
2023-03-06T13:13:51.734Z,98122.94
2023-03-06T13:16:22.754Z,98108.47
2023-03-06T13:18:52.082Z,98103.50
2023-03-06T13:21:38.358Z,98106.25
2023-03-06T13:24:05.831Z,98105.00
2023-03-06T13:26:47.820Z,98103.09
2023-03-06T13:29:33.914Z,98102.41
2023-03-06T13:32:01.351Z,98093.03
2023-03-06T13:34:31.545Z,98099.56
2023-03-06T13:37:14.011Z,98090.09
2023-03-06T13:39:53.449Z,98084.00
2023-03-06T13:42:27.854Z,98088.81
2023-03-06T13:44:58.194Z,98076.00
2023-03-06T13:48:02.783Z,98076.50
2023-03-06T13:50:33.552Z,98070.72
2023-03-06T13:53:05.365Z,98079.22
2023-03-06T13:55:35.805Z,98065.53
2023-03-06T13:58:22.849Z,98056.97
2023-03-06T14:00:56.965Z,98065.87
2023-03-06T14:03:43.255Z,98052.50
2023-03-06T14:06:37.342Z,98060.25
2023-03-06T14:09:05.433Z,98055.25
2023-03-06T14:11:32.677Z,98049.28
2023-03-06T14:13:59.850Z,98048.59
2023-03-06T14:16:32.723Z,98049.72
2023-03-06T14:19:04.826Z,98048.94
2023-03-06T14:21:34.781Z,98045.75
2023-03-06T14:24:03.358Z,98046.25
2023-03-06T14:26:32.206Z,98047.56
2023-03-06T14:29:00.129Z,98050.72
2023-03-06T14:31:28.231Z,98051.91
2023-03-06T14:33:59.023Z,98048.28
2023-03-06T14:36:36.137Z,98054.62
2023-03-06T14:39:06.901Z,98050.34
2023-03-06T14:41:34.847Z,98053.22
2023-03-06T14:44:08.200Z,98051.88
2023-03-06T14:46:35.827Z,98052.75
2023-03-06T14:49:06.204Z,98047.56
2023-03-06T14:51:34.117Z,98049.63
2023-03-06T14:54:01.679Z,98043.31
2023-03-06T14:56:28.873Z,98055.72
2023-03-06T14:58:57.742Z,98049.37
2023-03-06T15:01:38.722Z,98053.34
2023-03-06T15:04:14.808Z,98051.78
2023-03-06T15:06:42.640Z,98045.81
2023-03-06T15:09:24.437Z,98049.03
2023-03-06T15:11:54.732Z,98044.94
2023-03-06T15:14:27.407Z,98046.12
2023-03-06T15:16:54.826Z,98040.69
2023-03-06T15:19:25.119Z,98048.78
2023-03-06T15:21:52.381Z,98045.69
2023-03-06T15:24:34.139Z,98041.38
2023-03-06T15:27:02.780Z,98045.72
2023-03-06T15:29:30.296Z,98048.38
2023-03-06T15:32:14.380Z,98047.16
2023-03-06T15:34:41.851Z,98041.72
2023-03-06T15:37:28.363Z,98041.22
2023-03-06T15:40:09.242Z,98047.56
2023-03-06T15:42:36.519Z,98045.72
2023-03-06T15:45:13.079Z,98049.13
2023-03-06T15:47:40.283Z,98041.19
2023-03-06T15:50:15.404Z,98048.41
2023-03-06T15:52:43.385Z,98043.78
2023-03-06T15:55:11.968Z,98044.03
2023-03-06T15:57:48.320Z,98045.34
2023-03-06T16:00:27.551Z,98043.28
2023-03-06T16:02:56.662Z,98047.22
2023-03-06T16:05:24.504Z,98049.97
2023-03-06T16:07:51.882Z,98053.28
2023-03-06T16:10:20.876Z,98047.63
2023-03-06T16:12:52.405Z,98051.47
2023-03-06T16:15:25.321Z,98042.66
2023-03-06T16:17:52.840Z,98038.88
2023-03-06T16:20:21.728Z,98034.31
2023-03-06T16:22:49.932Z,98044.75
2023-03-06T16:25:17.971Z,98049.75
2023-03-06T16:27:46.978Z,98050.19
2023-03-06T16:30:18.394Z,98055.78
2023-03-06T16:32:46.898Z,98059.84
2023-03-06T16:35:14.534Z,98056.34
2023-03-06T16:37:41.862Z,98054.69
2023-03-06T16:40:20.855Z,98064.37
2023-03-06T16:42:48.921Z,98061.84
2023-03-06T16:45:17.425Z,98057.34
2023-03-06T16:47:45.494Z,98063.78
2023-03-06T16:50:18.944Z,98071.19
2023-03-06T16:52:46.527Z,98072.03
2023-03-06T16:55:14.335Z,98066.50
2023-03-06T16:57:42.065Z,98068.16
2023-03-06T17:00:12.002Z,98062.75
2023-03-06T17:02:39.679Z,98057.34
2023-03-06T17:05:09.504Z,98059.13
2023-03-06T17:07:38.114Z,98058.37
2023-03-06T17:10:05.789Z,98058.44
2023-03-06T17:12:32.956Z,98051.38
2023-03-06T17:15:01.081Z,98057.41
2023-03-06T17:17:40.153Z,98057.50
2023-03-06T17:20:13.016Z,98057.87
2023-03-06T17:22:41.558Z,98056.75
2023-03-06T17:25:09.466Z,98052.47
2023-03-06T17:27:38.654Z,98059.31
2023-03-06T17:30:06.548Z,98058.06
2023-03-06T17:32:34.119Z,98048.81
2023-03-06T17:35:02.699Z,98062.72
2023-03-06T17:37:31.599Z,98064.28
2023-03-06T17:39:59.026Z,98073.00
2023-03-06T17:42:26.918Z,98067.50
2023-03-06T17:44:54.537Z,98067.41
2023-03-06T17:47:22.164Z,98066.63
2023-03-06T17:49:50.445Z,98071.97
2023-03-06T17:52:18.280Z,98078.66
2023-03-06T17:54:46.580Z,98074.38
2023-03-06T17:57:14.573Z,98069.97
2023-03-06T17:59:46.930Z,98076.75
2023-03-06T18:02:15.300Z,98069.75
2023-03-06T18:04:45.110Z,98074.72
2023-03-06T18:07:13.458Z,98074.53
2023-03-06T18:09:41.841Z,98074.81
2023-03-06T18:12:10.493Z,98072.16
2023-03-06T18:14:39.049Z,98075.94
2023-03-06T18:17:06.738Z,98076.50
2023-03-06T18:19:38.527Z,98075.75
2023-03-06T18:22:06.464Z,98078.41
2023-03-06T18:24:34.658Z,98073.37
2023-03-06T18:27:03.025Z,98063.69
2023-03-06T18:29:31.368Z,98059.84
2023-03-06T18:32:00.374Z,98054.38
2023-03-06T18:34:28.746Z,98069.59
2023-03-06T18:36:56.951Z,98059.38
2023-03-06T18:39:26.215Z,98060.44
2023-03-06T18:41:56.048Z,98060.34
2023-03-06T18:44:25.736Z,98061.69
2023-03-06T18:46:54.561Z,98081.13
2023-03-06T18:49:23.375Z,98077.50
2023-03-06T18:51:51.457Z,98078.22
2023-03-06T18:54:20.852Z,98090.66
2023-03-06T18:56:51.563Z,98089.72
2023-03-06T18:59:23.960Z,98089.09
2023-03-06T19:01:58.162Z,98088.34
2023-03-06T19:04:27.267Z,98094.59
2023-03-06T19:06:56.789Z,98093.09
2023-03-06T19:09:26.210Z,98088.63
2023-03-06T19:11:56.615Z,98086.31
2023-03-06T19:14:25.617Z,98093.56
2023-03-06T19:16:58.679Z,98074.41
2023-03-06T19:19:32.997Z,98064.78
2023-03-06T19:22:03.810Z,98081.63
2023-03-06T19:24:33.802Z,98061.88
2023-03-06T19:27:04.262Z,98068.50
2023-03-06T19:29:35.959Z,98059.34
2023-03-06T19:32:04.800Z,98055.91
2023-03-06T19:34:33.632Z,98055.16
2023-03-06T19:37:02.052Z,98053.06
2023-03-06T19:39:30.618Z,98052.19
2023-03-06T19:41:59.090Z,98063.41
2023-03-06T19:44:27.368Z,98054.94
2023-03-06T19:46:56.020Z,98058.53
2023-03-06T19:49:24.974Z,98062.00
2023-03-06T19:51:53.321Z,98059.06
2023-03-06T19:54:23.815Z,98058.75
2023-03-06T19:56:54.057Z,98056.94
2023-03-06T19:59:27.234Z,98056.22
2023-03-06T20:01:56.791Z,98054.88
2023-03-06T20:04:25.525Z,98059.84
2023-03-06T20:06:56.757Z,98048.75
2023-03-06T20:09:25.627Z,98049.44
2023-03-06T20:11:54.206Z,98053.00
2023-03-06T20:14:22.594Z,98057.56
2023-03-06T20:16:53.648Z,98051.53
2023-03-06T20:19:22.517Z,98052.44
2023-03-06T20:21:50.816Z,98054.66
2023-03-06T20:24:20.211Z,98056.22
2023-03-06T20:26:49.923Z,98067.06
2023-03-06T20:29:18.702Z,98062.84
2023-03-06T20:31:47.388Z,98066.00
2023-03-06T20:34:15.642Z,98053.28
2023-03-06T20:36:45.763Z,98055.59
2023-03-06T20:39:16.480Z,98063.53
2023-03-06T20:41:45.732Z,98058.63
2023-03-06T20:44:14.940Z,98055.16
2023-03-06T20:46:43.001Z,98071.91
2023-03-06T20:49:11.670Z,98072.19
2023-03-06T20:51:41.172Z,98082.28
2023-03-06T20:54:11.150Z,98071.78
2023-03-06T20:56:40.088Z,98078.78
2023-03-06T20:59:11.940Z,98069.62
2023-03-06T21:01:44.873Z,98068.28
2023-03-06T21:04:16.099Z,98057.91
2023-03-06T21:06:47.005Z,98071.38
2023-03-06T21:09:15.883Z,98073.63
2023-03-06T21:11:43.779Z,98073.34
2023-03-06T21:14:14.281Z,98072.00
2023-03-06T21:16:42.446Z,98078.97
2023-03-06T21:19:09.997Z,98073.97
2023-03-06T21:21:38.421Z,98065.84
2023-03-06T21:24:06.192Z,98073.63
2023-03-06T21:26:35.435Z,98069.75
2023-03-06T21:29:04.006Z,98074.81
2023-03-06T21:31:31.787Z,98067.28
2023-03-06T21:33:59.752Z,98070.78
2023-03-06T21:36:27.422Z,98070.44
2023-03-06T21:38:54.836Z,98076.91
2023-03-06T21:41:26.289Z,98077.03
2023-03-06T21:43:54.959Z,98082.28
2023-03-06T21:46:22.196Z,98079.66
2023-03-06T21:48:49.423Z,98072.94
2023-03-06T21:51:19.066Z,98074.38
2023-03-06T21:53:46.907Z,98070.03
2023-03-06T21:56:14.786Z,98068.44
2023-03-06T21:58:42.359Z,98065.19
2023-03-06T22:01:14.372Z,98065.03
2023-03-06T22:03:41.922Z,98060.62
2023-03-06T22:06:13.700Z,98065.72
2023-03-06T22:08:40.853Z,98066.81
2023-03-06T22:11:09.544Z,98069.03
2023-03-06T22:13:37.345Z,98064.50
2023-03-06T22:16:04.759Z,98074.06
2023-03-06T22:18:32.573Z,98068.88
2023-03-06T22:20:59.744Z,98083.34
2023-03-06T22:23:26.943Z,98070.78
2023-03-06T22:25:54.388Z,98065.41
2023-03-06T22:28:21.662Z,98063.63
2023-03-06T22:30:48.889Z,98064.19
2023-03-06T22:33:16.347Z,98055.16
2023-03-06T22:35:43.704Z,98059.00
2023-03-06T22:38:11.109Z,98067.22
2023-03-06T22:40:38.548Z,98064.53
2023-03-06T22:43:05.693Z,98067.47
2023-03-06T22:45:34.648Z,98065.56
2023-03-06T22:48:10.424Z,98075.88
2023-03-06T22:50:38.142Z,98069.41
2023-03-06T22:53:05.576Z,98081.13
2023-03-06T22:55:34.374Z,98088.56
2023-03-06T22:58:01.862Z,98074.91
2023-03-06T23:00:29.305Z,98078.09
2023-03-06T23:02:56.462Z,98083.41
2023-03-06T23:05:23.676Z,98075.97
2023-03-06T23:07:51.385Z,98084.59
2023-03-06T23:10:19.062Z,98069.22
2023-03-06T23:13:04.519Z,98073.28
2023-03-06T23:15:50.393Z,98069.72
2023-03-06T23:18:36.777Z,98067.84
2023-03-06T23:21:22.885Z,98070.88
2023-03-06T23:24:08.721Z,98071.94
2023-03-06T23:26:36.219Z,98074.09
2023-03-06T23:29:04.331Z,98076.31
2023-03-06T23:31:31.616Z,98068.41
2023-03-06T23:33:59.878Z,98073.50
2023-03-06T23:36:27.407Z,98074.28
2023-03-06T23:38:54.615Z,98072.37
2023-03-06T23:41:23.003Z,98070.16
2023-03-06T23:43:50.257Z,98069.22
2023-03-06T23:46:17.461Z,98072.53
2023-03-06T23:48:44.967Z,98071.88
2023-03-06T23:51:13.779Z,98071.75
2023-03-06T23:53:40.959Z,98078.69
2023-03-06T23:56:08.616Z,98071.66
2023-03-06T23:58:35.838Z,98073.59
